Flight Track Log - Related Links

Times and Time Zones

All times are in EDT time to prevent confusion due to time zone crossing. See the N235SR flight status page for this flight to view local times or setup timezone preferences in your user account.

Time Position Orientation Groundspeed Altitude Reporting Facility
EDT Latitude Longitude Course Direction KTS MPH feet Rate Location/Type
Wed 03:00:15 PM 47.0167 -120.4915 75° East  Level FlightAware Approximate
Wed 03:01:23 PM 47.0517 -120.2944 77° East 95 109 5,600  Level Seattle Center
Wed 03:02:24 PM 47.0564 -120.2647 83° East 93 107 6,100 537 Climbing Seattle Center
Wed 03:03:26 PM 47.0594 -120.2286 79° East 90 104 6,700 390 Climbing Seattle Center
Wed 03:04:27 PM 47.0656 -120.1836 64° Northeast 93 107 6,900 246 Climbing Seattle Center
Wed 03:05:28 PM 47.0783 -120.1444 72° East 107 123 7,200 49 Climbing Seattle Center
Wed 03:06:29 PM 47.0869 -120.1056 87° East 123 142 7,000 -98 Descending Seattle Center
Wed 03:07:31 PM 47.0889 -120.0572 75° East 99 114 7,000 49 Level Seattle Center
Wed 03:08:32 PM 47.0964 -120.0158 74° East 105 121 7,100 49 Climbing Seattle Center
Wed 03:09:34 PM 47.1056 -119.9694 76° East 115 132 7,100 -98 Level Seattle Center
Wed 03:10:35 PM 47.1136 -119.9236 91° East 117 135 6,900 -443 Descending Seattle Center
Wed 03:11:36 PM 47.1131 -119.8806 92° East 107 123 6,200 -488 Descending Seattle Center
Wed 03:12:38 PM 47.1119 -119.8367 89° East 108 124 5,900 -390 Descending Seattle Center
Wed 03:13:39 PM 47.1125 -119.7836 89° East 109 125 5,400 -443 Descending Seattle Center
Wed 03:14:40 PM 47.1128 -119.7392 99° East 109 125 5,000 -488 Descending Seattle Center
Wed 03:15:42 PM 47.1078 -119.6953 98° East 109 125 4,400 -439 Descending Seattle Center
Wed 03:16:43 PM 47.1039 -119.6536 99° East 105 121 4,100 -197 Descending Seattle Center
Wed 03:17:44 PM 47.0994 -119.6108 98° East 106 122 4,000 -49 Descending Seattle Center
Wed 03:18:46 PM 47.0953 -119.5694 99° East 104 120 4,000  Level Seattle Center
Wed 03:19:47 PM 47.0911 -119.5322 93° East 96 110 4,000 49 Level Seattle Center
Wed 03:20:48 PM 47.0897 -119.4933 59° Northeast 97 112 4,100  Climbing Seattle Center
Wed 03:21:49 PM 47.1058 -119.4542 59° Northeast 109 125 4,000 -98 Descending Seattle Center

Login

Don't have an account? Register now (free) for customized features, flight alerts, and more!